Time;durP1;ratioP1;P1;durP2;ratioP2;P2;SDS_P1;SDS_P2;PMS_P1;PMS_P2;Temp;Humidity;BMP_temperature;BMP_pressure;BME280_temperature;BME280_humidity;BME280_pressure;Samples;Min_cycle;Max_cycle;Signal;HPM_P1;HPM_P2
2021/08/26 00:06:57;;;;;;;3.08;1.52;;;16.30;99.90;;;;;;5093513;28;20031;-75
2021/08/26 00:09:23;;;;;;;3.35;2.15;;;16.30;99.90;;;;;;5092074;28;20028;-78
2021/08/26 00:11:51;;;;;;;2.65;1.42;;;16.20;99.90;;;;;;5092712;28;20516;-74
2021/08/26 00:14:18;;;;;;;3.20;2.13;;;16.20;99.90;;;;;;5093293;28;20072;-76
2021/08/26 00:16:44;;;;;;;2.42;1.90;;;16.30;99.90;;;;;;5093281;28;20024;-74
2021/08/26 00:19:14;;;;;;;2.83;1.48;;;16.30;99.90;;;;;;5091470;28;20507;-79
2021/08/26 00:21:40;;;;;;;4.38;2.40;;;16.30;99.90;;;;;;5093673;28;20460;-76
2021/08/26 00:24:07;;;;;;;3.00;2.00;;;16.30;99.90;;;;;;5092104;28;20030;-77
2021/08/26 00:26:33;;;;;;;3.25;1.90;;;16.40;99.90;;;;;;5091281;28;20024;-77
2021/08/26 00:29:04;;;;;;;3.45;1.70;;;16.40;99.90;;;;;;5092917;28;20031;-74
2021/08/26 00:31:30;;;;;;;2.78;1.92;;;16.40;99.90;;;;;;5093099;28;20024;-76
2021/08/26 00:33:56;;;;;;;4.35;2.38;;;16.40;99.90;;;;;;5091152;28;20020;-81
2021/08/26 00:36:22;;;;;;;4.32;2.45;;;16.40;99.90;;;;;;5091902;28;20076;-77
2021/08/26 00:38:48;;;;;;;4.00;2.45;;;16.40;99.90;;;;;;5092997;28;20024;-73
2021/08/26 00:41:17;;;;;;;3.55;2.10;;;16.30;99.90;;;;;;5091218;28;20119;-74
2021/08/26 00:43:43;;;;;;;3.78;2.42;;;16.40;99.90;;;;;;5092786;28;20031;-73
2021/08/26 00:46:13;;;;;;;5.13;2.85;;;16.40;99.90;;;;;;5092997;28;20032;-75
2021/08/26 00:48:49;;;;;;;7.13;2.47;;;16.40;99.90;;;;;;5092305;28;20028;-74
2021/08/26 00:51:16;;;;;;;4.45;2.15;;;16.40;99.90;;;;;;5093142;28;20081;-77
2021/08/26 00:53:42;;;;;;;2.55;2.20;;;16.40;99.90;;;;;;5090754;28;20467;-78
2021/08/26 00:56:15;;;;;;;3.00;2.13;;;16.30;99.90;;;;;;5093068;28;20102;-72
2021/08/26 00:58:49;;;;;;;2.30;1.90;;;16.30;99.90;;;;;;5091307;28;20077;-73
2021/08/26 01:01:24;;;;;;;4.50;2.42;;;16.40;99.90;;;;;;5090707;28;20024;-74
2021/08/26 01:04:05;;;;;;;3.95;2.25;;;16.30;99.90;;;;;;5091230;28;20036;-73
2021/08/26 01:06:40;;;;;;;3.00;2.30;;;16.30;99.90;;;;;;5091652;28;20464;-73
2021/08/26 01:09:10;;;;;;;2.75;1.98;;;16.40;99.90;;;;;;5090681;28;20024;-73
2021/08/26 01:11:41;;;;;;;4.35;2.13;;;16.40;99.90;;;;;;5091309;28;20050;-73
2021/08/26 01:14:09;;;;;;;6.05;2.45;;;16.40;99.90;;;;;;5091455;28;20075;-73
2021/08/26 01:16:41;;;;;;;2.53;2.30;;;16.40;99.90;;;;;;5092216;28;20433;-73
2021/08/26 01:19:07;;;;;;;3.97;2.15;;;16.40;99.90;;;;;;5091579;28;20028;-74
2021/08/26 01:21:33;;;;;;;4.68;2.45;;;16.40;99.90;;;;;;5092841;28;20020;-75
2021/08/26 01:24:02;;;;;;;3.10;2.03;;;16.40;99.90;;;;;;5091950;28;20460;-78
2021/08/26 01:26:33;;;;;;;7.05;3.03;;;16.40;99.90;;;;;;5092562;28;20024;-73
2021/08/26 01:29:03;;;;;;;4.25;1.98;;;16.40;99.90;;;;;;5091923;28;20052;-75
2021/08/26 01:31:29;;;;;;;5.22;2.38;;;16.30;99.90;;;;;;5091304;28;20026;-73
2021/08/26 01:33:56;;;;;;;5.93;2.40;;;16.30;99.90;;;;;;5092375;28;20107;-74
2021/08/26 01:36:23;;;;;;;9.40;3.45;;;16.30;99.90;;;;;;5091765;28;20028;-73
2021/08/26 01:38:51;;;;;;;4.05;2.38;;;16.30;99.90;;;;;;5094154;28;20028;-74
2021/08/26 01:41:17;;;;;;;3.88;2.28;;;16.30;99.90;;;;;;5096257;28;20027;-73
2021/08/26 01:43:45;;;;;;;5.30;2.53;;;16.20;99.90;;;;;;5095564;28;20020;-73
2021/08/26 01:46:11;;;;;;;7.82;3.17;;;16.20;99.90;;;;;;5094878;28;20031;-73
2021/08/26 01:48:36;;;;;;;4.28;2.47;;;16.20;99.90;;;;;;5096348;28;20385;-74
2021/08/26 01:51:02;;;;;;;3.42;1.98;;;16.10;99.90;;;;;;5095254;28;20020;-75
2021/08/26 01:53:27;;;;;;;4.88;2.83;;;16.10;99.90;;;;;;5096262;28;20469;-73
2021/08/26 01:55:53;;;;;;;5.85;2.40;;;16.10;99.90;;;;;;5095849;28;20498;-74
2021/08/26 01:58:18;;;;;;;5.28;2.70;;;16.10;99.90;;;;;;5095371;28;20089;-75
2021/08/26 02:00:45;;;;;;;6.30;2.83;;;16.10;99.90;;;;;;5095616;28;20028;-73
2021/08/26 02:03:10;;;;;;;8.73;2.92;;;16.10;99.90;;;;;;5095897;28;20091;-74
2021/08/26 02:05:36;;;;;;;5.32;2.67;;;16.00;99.90;;;;;;5093835;28;20127;-74
2021/08/26 02:08:01;;;;;;;9.93;3.58;;;16.00;99.90;;;;;;5094192;28;20024;-73
2021/08/26 02:10:27;;;;;;;7.38;2.83;;;16.00;99.90;;;;;;5095661;28;20024;-73
2021/08/26 02:12:53;;;;;;;6.28;2.95;;;16.00;99.90;;;;;;5093351;28;20466;-73
2021/08/26 02:15:19;;;;;;;11.32;4.22;;;15.90;99.90;;;;;;5094356;28;20042;-76
2021/08/26 02:17:45;;;;;;;7.50;3.10;;;15.90;99.90;;;;;;5094037;28;20012;-73
2021/08/26 02:20:11;;;;;;;9.60;3.55;;;15.90;99.90;;;;;;5093294;28;20020;-73
2021/08/26 02:22:37;;;;;;;14.18;4.50;;;15.90;99.90;;;;;;5095220;28;20012;-76
2021/08/26 02:25:05;;;;;;;9.52;3.67;;;15.90;99.90;;;;;;5094365;28;20476;-74
2021/08/26 02:27:31;;;;;;;9.88;3.67;;;15.80;99.90;;;;;;5095333;28;20573;-75
2021/08/26 02:29:56;;;;;;;8.95;4.05;;;15.80;99.90;;;;;;5094975;28;20103;-78
2021/08/26 02:32:22;;;;;;;9.77;4.00;;;15.80;99.90;;;;;;5093136;28;20065;-82
2021/08/26 02:34:47;;;;;;;8.68;3.47;;;15.70;99.90;;;;;;5095142;28;20495;-75
2021/08/26 02:37:13;;;;;;;7.82;3.33;;;15.70;99.90;;;;;;5095549;28;20028;-82
2021/08/26 02:39:38;;;;;;;11.70;4.18;;;15.70;99.90;;;;;;5094341;28;20035;-75
2021/08/26 02:42:04;;;;;;;9.30;3.35;;;15.70;99.90;;;;;;5094890;28;20089;-75
2021/08/26 02:44:30;;;;;;;9.70;3.45;;;15.70;99.90;;;;;;5094100;28;20062;-75
2021/08/26 02:46:56;;;;;;;11.45;4.22;;;15.70;99.90;;;;;;5093252;28;20025;-82
2021/08/26 02:49:22;;;;;;;10.25;4.10;;;15.70;99.90;;;;;;5092543;28;20043;-81
2021/08/26 02:51:48;;;;;;;12.00;3.72;;;15.70;99.90;;;;;;5099905;28;20511;-77
2021/08/26 02:54:13;;;;;;;13.90;4.72;;;15.70;99.90;;;;;;5113637;28;20036;-74
2021/08/26 02:56:39;;;;;;;7.82;4.10;;;15.70;99.90;;;;;;5106033;28;20101;-75
2021/08/26 02:59:04;;;;;;;10.65;3.28;;;15.70;99.90;;;;;;5094870;28;20032;-81
2021/08/26 03:01:30;;;;;;;10.77;3.58;;;15.70;99.90;;;;;;5094260;28;20031;-78
2021/08/26 03:03:56;;;;;;;10.18;3.97;;;15.70;99.90;;;;;;5095759;28;20024;-79
2021/08/26 03:06:21;;;;;;;8.13;3.38;;;15.70;99.90;;;;;;5106004;28;20024;-73
2021/08/26 03:08:47;;;;;;;8.25;3.28;;;15.60;99.90;;;;;;5110514;28;20024;-79
2021/08/26 03:11:12;;;;;;;11.65;4.35;;;15.60;99.90;;;;;;5106657;28;20020;-76
2021/08/26 03:13:38;;;;;;;9.95;3.55;;;15.60;99.90;;;;;;5093316;28;20489;-75
2021/08/26 03:16:05;;;;;;;8.75;3.13;;;15.70;99.90;;;;;;5093830;28;20027;-81
2021/08/26 03:18:31;;;;;;;10.15;4.07;;;15.60;99.90;;;;;;5094627;28;20107;-74
2021/08/26 03:20:57;;;;;;;8.38;3.67;;;15.60;99.90;;;;;;5094215;28;20112;-74
2021/08/26 03:23:22;;;;;;;15.60;3.80;;;15.60;99.90;;;;;;5093953;28;20044;-75
2021/08/26 03:25:48;;;;;;;13.35;3.90;;;15.60;99.90;;;;;;5092641;28;20039;-83
2021/08/26 03:28:15;;;;;;;16.65;4.20;;;15.60;99.90;;;;;;5094093;28;20514;-74
2021/08/26 03:30:40;;;;;;;16.13;4.78;;;15.60;99.90;;;;;;5094043;28;20020;-74
2021/08/26 03:33:06;;;;;;;17.23;5.38;;;15.50;99.90;;;;;;5094523;28;20024;-78
2021/08/26 03:35:32;;;;;;;11.23;4.15;;;15.50;99.90;;;;;;5094391;28;20507;-74
2021/08/26 03:37:57;;;;;;;15.82;5.13;;;15.50;99.90;;;;;;5092755;28;20103;-81
2021/08/26 03:40:23;;;;;;;13.20;4.55;;;15.50;99.90;;;;;;5092749;28;20031;-83
2021/08/26 03:42:48;;;;;;;12.75;4.45;;;15.50;99.90;;;;;;5092659;28;20507;-75
2021/08/26 03:45:14;;;;;;;13.60;4.38;;;15.40;99.90;;;;;;5092627;28;20481;-82
2021/08/26 03:47:39;;;;;;;15.48;4.47;;;15.40;99.90;;;;;;5092834;28;20508;-80
2021/08/26 03:50:06;;;;;;;12.75;4.75;;;15.40;99.90;;;;;;5092029;28;20523;-78
2021/08/26 03:52:31;;;;;;;14.65;5.30;;;15.40;99.90;;;;;;5092771;28;20111;-76
2021/08/26 03:54:57;;;;;;;13.05;4.47;;;15.40;99.90;;;;;;5093125;28;20148;-75
2021/08/26 03:57:22;;;;;;;13.27;4.40;;;15.40;99.90;;;;;;5093168;28;20020;-75
2021/08/26 03:59:48;;;;;;;15.18;4.38;;;15.40;99.90;;;;;;5091792;28;20024;-77
2021/08/26 04:02:14;;;;;;;11.52;4.70;;;15.40;99.90;;;;;;5092715;28;20020;-78
2021/08/26 04:04:39;;;;;;;11.43;4.07;;;15.40;99.90;;;;;;5091915;28;20047;-77
2021/08/26 04:07:05;;;;;;;11.55;4.25;;;15.40;99.90;;;;;;5093655;28;20023;-78
2021/08/26 04:09:30;;;;;;;10.98;4.00;;;15.40;99.90;;;;;;5093386;28;20061;-78
2021/08/26 04:11:56;;;;;;;13.70;4.82;;;15.40;99.90;;;;;;5091298;28;20461;-76
2021/08/26 04:14:21;;;;;;;15.73;4.35;;;15.40;99.90;;;;;;5091948;28;20044;-74
2021/08/26 04:16:47;;;;;;;11.98;4.53;;;15.40;99.90;;;;;;5091905;28;20388;-79
2021/08/26 04:19:13;;;;;;;15.13;4.63;;;15.40;99.90;;;;;;5093337;28;20085;-79
2021/08/26 04:21:38;;;;;;;10.90;3.70;;;15.40;99.90;;;;;;5093389;28;20019;-77
2021/08/26 04:24:04;;;;;;;9.27;4.05;;;15.40;99.90;;;;;;5092071;28;20425;-81
2021/08/26 04:26:30;;;;;;;13.43;3.88;;;15.40;99.90;;;;;;5091542;28;20027;-74
2021/08/26 04:28:56;;;;;;;11.20;4.10;;;15.40;99.90;;;;;;5091915;28;20028;-79
2021/08/26 04:31:21;;;;;;;16.35;4.90;;;15.40;99.90;;;;;;5093248;28;20094;-83
2021/08/26 04:33:47;;;;;;;9.05;3.70;;;15.40;99.90;;;;;;5091255;28;20035;-77
2021/08/26 04:36:12;;;;;;;11.98;3.95;;;15.30;99.90;;;;;;5092025;28;20069;-79
2021/08/26 04:38:38;;;;;;;13.13;3.65;;;15.30;99.90;;;;;;5091422;28;20061;-83
2021/08/26 04:41:03;;;;;;;9.32;3.63;;;15.40;99.90;;;;;;5092703;28;20500;-78
2021/08/26 04:43:29;;;;;;;9.50;3.53;;;15.30;99.90;;;;;;5093003;28;20034;-77
2021/08/26 04:45:54;;;;;;;10.30;3.50;;;15.40;99.90;;;;;;5092273;28;20103;-78
2021/08/26 04:48:20;;;;;;;14.20;3.60;;;15.30;99.90;;;;;;5092770;28;20024;-82
2021/08/26 04:50:45;;;;;;;13.57;3.75;;;15.30;99.90;;;;;;5105613;28;20107;-81
2021/08/26 04:53:12;;;;;;;20.67;4.80;;;15.20;99.90;;;;;;5111793;28;20043;-81
2021/08/26 04:55:37;;;;;;;10.80;3.78;;;15.20;99.90;;;;;;5112806;28;20468;-76
2021/08/26 04:58:03;;;;;;;14.98;4.63;;;15.30;99.90;;;;;;5111885;28;20107;-74
2021/08/26 05:00:28;;;;;;;14.45;3.72;;;15.20;99.90;;;;;;5112438;28;20016;-74
2021/08/26 05:02:54;;;;;;;10.90;3.83;;;15.30;99.90;;;;;;5111467;28;20460;-74
2021/08/26 05:05:22;;;;;;;11.07;3.67;;;15.30;99.90;;;;;;5111775;28;20043;-75
2021/08/26 05:07:48;;;;;;;12.65;3.42;;;15.30;99.90;;;;;;5111272;28;20023;-75
2021/08/26 05:10:13;;;;;;;17.25;5.03;;;15.30;99.90;;;;;;5111918;28;20083;-74
2021/08/26 05:12:39;;;;;;;14.30;4.25;;;15.30;99.90;;;;;;5113474;28;20475;-79
2021/08/26 05:15:05;;;;;;;11.10;3.60;;;15.30;99.90;;;;;;5115154;28;20047;-82
2021/08/26 05:17:31;;;;;;;11.77;3.35;;;15.30;99.90;;;;;;5117244;28;20396;-82
2021/08/26 05:19:56;;;;;;;10.07;3.80;;;15.30;99.90;;;;;;5116941;28;20028;-82
2021/08/26 05:22:23;;;;;;;10.65;3.38;;;15.30;99.90;;;;;;5116478;28;20031;-76
2021/08/26 05:24:50;;;;;;;10.32;4.10;;;15.40;99.90;;;;;;5116854;28;20032;-81
2021/08/26 05:27:16;;;;;;;15.48;4.30;;;15.40;99.90;;;;;;5116002;28;20042;-77
2021/08/26 05:29:44;;;;;;;14.60;4.68;;;15.40;99.90;;;;;;5116019;28;20051;-76
2021/08/26 05:32:09;;;;;;;9.82;3.85;;;15.50;99.90;;;;;;5117154;28;20019;-74
2021/08/26 05:34:35;;;;;;;12.85;3.90;;;15.50;99.90;;;;;;5117014;28;20368;-74
2021/08/26 05:37:00;;;;;;;11.77;3.67;;;15.60;99.90;;;;;;5114790;28;20472;-75
2021/08/26 05:39:26;;;;;;;8.23;3.28;;;15.60;99.90;;;;;;5115743;28;20081;-81
2021/08/26 05:41:51;;;;;;;9.93;3.88;;;15.70;99.90;;;;;;5115254;28;20016;-73
2021/08/26 05:44:17;;;;;;;8.05;3.58;;;15.80;99.90;;;;;;5114785;28;20027;-75
2021/08/26 05:46:44;;;;;;;10.65;3.20;;;15.90;99.90;;;;;;5116491;28;20383;-74
2021/08/26 05:49:09;;;;;;;14.13;4.35;;;15.90;99.90;;;;;;5114740;28;20034;-76
2021/08/26 05:51:35;;;;;;;13.68;4.72;;;15.90;99.90;;;;;;5115317;28;20027;-77
2021/08/26 05:54:01;;;;;;;15.05;3.42;;;16.00;99.90;;;;;;5116679;28;20024;-74
2021/08/26 05:56:27;;;;;;;10.50;3.20;;;16.00;99.90;;;;;;5115876;28;20379;-77
2021/08/26 05:58:53;;;;;;;11.55;3.25;;;16.00;99.90;;;;;;5116212;28;20024;-74
2021/08/26 06:01:19;;;;;;;9.55;2.53;;;16.00;99.90;;;;;;5116490;28;20038;-77
2021/08/26 06:03:44;;;;;;;8.45;2.88;;;16.10;99.90;;;;;;5114364;28;20020;-74
2021/08/26 06:06:10;;;;;;;11.85;4.00;;;16.10;99.90;;;;;;5116345;28;20491;-81
2021/08/26 06:08:36;;;;;;;8.70;2.53;;;16.00;99.90;;;;;;5116519;28;20352;-81
2021/08/26 06:11:01;;;;;;;6.88;2.95;;;15.90;99.90;;;;;;5114116;28;20020;-78
2021/08/26 06:13:27;;;;;;;13.82;3.90;;;15.90;99.90;;;;;;5116231;28;20067;-81
2021/08/26 06:15:52;;;;;;;9.65;3.70;;;16.10;99.90;;;;;;5111332;28;20495;-84
2021/08/26 06:18:18;;;;;;;7.57;2.70;;;16.20;99.90;;;;;;5094048;28;20026;-77
2021/08/26 06:20:44;;;;;;;8.18;2.38;;;16.20;99.90;;;;;;5093155;28;20016;-78
2021/08/26 06:23:10;;;;;;;7.82;2.67;;;16.30;99.90;;;;;;5093364;28;20062;-80
2021/08/26 06:25:35;;;;;;;11.23;3.25;;;16.30;99.90;;;;;;5093251;28;20472;-78
2021/08/26 06:28:01;;;;;;;11.30;3.15;;;16.30;99.90;;;;;;5095239;28;20095;-74
2021/08/26 06:30:27;;;;;;;9.07;3.00;;;16.30;99.90;;;;;;5088382;28;20388;-78
2021/08/26 06:32:52;;;;;;;10.93;3.42;;;16.30;99.90;;;;;;5090099;28;20016;-78
2021/08/26 06:35:19;;;;;;;11.38;3.47;;;16.30;99.90;;;;;;5087182;28;20456;-74
2021/08/26 06:37:44;;;;;;;11.50;3.63;;;16.30;99.90;;;;;;5104429;28;20030;-74
2021/08/26 06:40:11;;;;;;;5.40;2.40;;;16.30;99.90;;;;;;5115037;28;20028;-76
2021/08/26 06:42:36;;;;;;;9.15;3.25;;;16.40;99.90;;;;;;5093830;28;20048;-80
2021/08/26 06:45:02;;;;;;;12.98;3.42;;;16.40;99.90;;;;;;5094960;28;20063;-75
2021/08/26 06:47:28;;;;;;;9.10;2.70;;;16.50;99.90;;;;;;5094076;28;20027;-78
2021/08/26 06:49:53;;;;;;;10.35;3.08;;;16.60;99.90;;;;;;5104915;28;20039;-77
2021/08/26 06:52:19;;;;;;;10.15;3.30;;;16.80;99.90;;;;;;5114813;28;20485;-74
2021/08/26 06:54:45;;;;;;;9.70;3.67;;;16.90;99.90;;;;;;5098116;28;20509;-78
2021/08/26 06:57:10;;;;;;;4.50;2.47;;;16.90;99.90;;;;;;5093043;28;20016;-79
2021/08/26 06:59:36;;;;;;;9.50;2.88;;;16.90;99.90;;;;;;5093040;28;20519;-77
2021/08/26 07:02:02;;;;;;;9.20;2.90;;;17.00;99.90;;;;;;5093974;28;20070;-71
2021/08/26 07:04:27;;;;;;;6.07;2.05;;;16.90;99.90;;;;;;5093014;28;20374;-75
2021/08/26 07:06:54;;;;;;;8.95;2.78;;;16.90;99.90;;;;;;5092398;28;20488;-74
2021/08/26 07:09:21;;;;;;;10.43;3.63;;;16.70;99.90;;;;;;5093637;28;20031;-75
2021/08/26 07:11:47;;;;;;;5.80;2.47;;;16.70;99.90;;;;;;5093070;28;20013;-74
2021/08/26 07:14:12;;;;;;;9.15;2.85;;;16.70;99.90;;;;;;5093676;28;20496;-73
2021/08/26 07:16:38;;;;;;;8.50;2.72;;;16.90;99.90;;;;;;5092568;28;20091;-72
2021/08/26 07:19:03;;;;;;;6.65;2.53;;;17.00;99.90;;;;;;5093033;28;20031;-70
2021/08/26 07:21:29;;;;;;;6.95;2.38;;;17.00;99.90;;;;;;5091372;28;20028;-74
2021/08/26 07:23:54;;;;;;;5.05;1.85;;;17.20;99.90;;;;;;5093022;28;20393;-71
2021/08/26 07:26:20;;;;;;;10.38;3.47;;;17.20;99.90;;;;;;5100873;28;20123;-77
2021/08/26 07:28:46;;;;;;;5.80;2.75;;;17.10;99.90;;;;;;5093248;28;20023;-76
2021/08/26 07:31:12;;;;;;;4.72;2.05;;;17.00;99.90;;;;;;5091743;28;20132;-78
2021/08/26 07:33:38;;;;;;;8.60;2.80;;;17.10;99.90;;;;;;5093650;28;20480;-77
2021/08/26 07:36:04;;;;;;;4.25;2.40;;;17.20;99.90;;;;;;5092559;28;20468;-73
2021/08/26 07:38:30;;;;;;;4.57;1.90;;;17.30;99.90;;;;;;5093661;28;20039;-74
2021/08/26 07:40:56;;;;;;;8.68;2.83;;;17.30;99.90;;;;;;5092568;28;20020;-75
2021/08/26 07:43:25;;;;;;;5.32;2.63;;;17.30;99.90;;;;;;5093021;28;20488;-77
2021/08/26 07:45:51;;;;;;;7.22;2.58;;;17.20;99.90;;;;;;5092539;28;20111;-75
2021/08/26 07:48:17;;;;;;;10.57;3.22;;;17.10;99.90;;;;;;5093901;28;20063;-72
2021/08/26 07:50:44;;;;;;;6.10;2.40;;;17.00;99.90;;;;;;5092255;28;20423;-73
2021/08/26 07:53:10;;;;;;;8.68;3.35;;;17.10;99.90;;;;;;5093698;28;20023;-73
2021/08/26 07:55:35;;;;;;;6.15;2.70;;;17.10;99.90;;;;;;5092605;28;20024;-72
2021/08/26 07:58:01;;;;;;;7.80;2.78;;;17.20;99.90;;;;;;5093430;28;20362;-74
2021/08/26 08:00:26;;;;;;;7.15;2.85;;;17.30;99.90;;;;;;5093635;28;20024;-72
2021/08/26 08:02:52;;;;;;;9.65;3.10;;;17.40;99.90;;;;;;5092428;28;20314;-75
2021/08/26 08:05:18;;;;;;;8.40;2.60;;;17.40;99.90;;;;;;5093317;28;20028;-73
2021/08/26 08:07:45;;;;;;;9.15;3.05;;;17.40;99.90;;;;;;5093327;28;20024;-73
2021/08/26 08:10:12;;;;;;;8.52;2.78;;;17.10;99.90;;;;;;5092000;28;20032;-77
2021/08/26 08:12:38;;;;;;;11.93;3.22;;;17.10;99.90;;;;;;5093517;28;20023;-76
2021/08/26 08:15:04;;;;;;;8.00;3.33;;;17.10;99.90;;;;;;5093092;28;20051;-75
2021/08/26 08:17:30;;;;;;;11.77;3.97;;;17.30;99.90;;;;;;5092176;28;20387;-82
2021/08/26 08:19:56;;;;;;;7.50;3.03;;;17.50;99.90;;;;;;5091535;28;20024;-78
2021/08/26 08:22:21;;;;;;;8.52;3.08;;;17.60;99.90;;;;;;5091977;28;20373;-75
2021/08/26 08:24:47;;;;;;;7.72;2.58;;;17.80;99.90;;;;;;5090077;28;20036;-72
2021/08/26 08:27:12;;;;;;;9.43;2.60;;;18.00;99.90;;;;;;5097367;28;20020;-71
2021/08/26 08:29:38;;;;;;;8.40;2.65;;;18.20;99.90;;;;;;5092917;28;20052;-72
2021/08/26 08:32:04;;;;;;;8.02;3.17;;;18.40;99.90;;;;;;5092357;28;20024;-69
2021/08/26 08:34:29;;;;;;;4.75;2.85;;;18.60;99.90;;;;;;5091646;28;20077;-71
2021/08/26 08:36:55;;;;;;;6.65;2.40;;;18.60;99.90;;;;;;5092399;28;20025;-71
2021/08/26 08:39:21;;;;;;;7.80;2.75;;;18.50;99.90;;;;;;5092143;28;20024;-72
2021/08/26 08:41:47;;;;;;;9.18;3.08;;;18.60;99.90;;;;;;5089789;28;20028;-73
2021/08/26 08:44:13;;;;;;;5.95;2.53;;;18.60;99.90;;;;;;5092477;28;20098;-76
2021/08/26 08:46:39;;;;;;;6.22;2.75;;;18.70;99.90;;;;;;5091021;28;20562;-82
2021/08/26 08:49:08;;;;;;;6.55;2.60;;;18.70;99.90;;;;;;5091353;28;20110;-76
2021/08/26 08:51:34;;;;;;;5.40;2.22;;;18.70;99.90;;;;;;5091278;28;20543;-70
2021/08/26 08:53:59;;;;;;;4.93;2.00;;;18.70;99.90;;;;;;5091978;28;20056;-73
2021/08/26 08:56:27;;;;;;;5.90;2.28;;;18.60;99.90;;;;;;5092824;28;20480;-72
2021/08/26 08:59:00;;;;;;;4.60;2.08;;;18.50;99.90;;;;;;5092420;28;20051;-76
2021/08/26 09:01:27;;;;;;;5.22;2.30;;;18.50;99.90;;;;;;5090663;28;20434;-72
2021/08/26 09:03:52;;;;;;;6.72;2.42;;;18.60;99.90;;;;;;5092883;28;20486;-70
2021/08/26 09:06:18;;;;;;;7.55;2.78;;;18.80;99.90;;;;;;5092287;28;20035;-75
2021/08/26 09:09:00;;;;;;;5.90;2.38;;;18.90;99.90;;;;;;5092698;28;20028;-84
2021/08/26 09:11:27;;;;;;;5.25;2.15;;;19.10;99.90;;;;;;5092394;28;20023;-74
2021/08/26 09:13:53;;;;;;;7.05;2.65;;;19.50;99.90;;;;;;5091312;28;20048;-78
2021/08/26 09:16:35;;;;;;;9.50;3.13;;;19.60;99.90;;;;;;5092772;28;20020;-71
2021/08/26 09:19:24;;;;;;;6.15;2.47;;;19.50;99.90;;;;;;5092510;28;20092;-71
2021/08/26 09:21:50;;;;;;;5.00;2.08;;;19.30;99.90;;;;;;5091926;28;20103;-70
2021/08/26 09:24:17;;;;;;;6.88;2.70;;;19.10;99.90;;;;;;5091509;28;20546;-73
2021/08/26 09:26:47;;;;;;;7.25;2.55;;;18.90;99.90;;;;;;5105488;28;20112;-79
2021/08/26 09:29:14;;;;;;;12.93;4.00;;;18.80;99.90;;;;;;5096017;28;20065;-80
2021/08/26 09:31:45;;;;;;;6.10;2.42;;;18.90;99.90;;;;;;5092186;28;20043;-80
2021/08/26 09:34:16;;;;;;;8.57;2.47;;;18.90;99.90;;;;;;5090472;28;20059;-81
2021/08/26 09:36:48;;;;;;;6.32;2.83;;;18.90;99.90;;;;;;5092321;28;20517;-79
2021/08/26 09:39:17;;;;;;;6.03;2.22;;;18.90;99.90;;;;;;5091456;28;20095;-78
2021/08/26 09:41:52;;;;;;;10.02;2.70;;;18.80;99.90;;;;;;5091385;28;20024;-74
2021/08/26 09:44:32;;;;;;;7.22;3.03;;;18.70;99.90;;;;;;5090504;28;20020;-81
2021/08/26 09:47:01;;;;;;;6.07;2.65;;;18.70;99.90;;;;;;5080328;28;20024;-76
2021/08/26 09:49:29;;;;;;;6.70;2.85;;;18.60;99.90;;;;;;5090485;28;20017;-75
2021/08/26 09:52:14;;;;;;;10.68;3.17;;;18.60;99.90;;;;;;5090521;28;20020;-76
2021/08/26 09:54:41;;;;;;;9.50;3.05;;;18.50;99.90;;;;;;5092359;28;20452;-77
2021/08/26 09:57:25;;;;;;;6.13;2.38;;;18.30;99.90;;;;;;5091692;28;20020;-75
2021/08/26 09:59:56;;;;;;;6.63;2.63;;;18.20;99.90;;;;;;5094617;28;20027;-75
2021/08/26 10:02:23;;;;;;;9.45;2.92;;;18.20;99.90;;;;;;5074955;28;20032;-73
2021/08/26 10:04:50;;;;;;;6.63;2.78;;;18.30;99.90;;;;;;5073731;28;20025;-73
2021/08/26 10:07:17;;;;;;;8.05;2.60;;;18.40;99.90;;;;;;5084024;28;20024;-77
2021/08/26 10:09:43;;;;;;;6.80;2.47;;;18.50;99.90;;;;;;5094714;28;20012;-74
2021/08/26 10:12:12;;;;;;;6.35;2.50;;;18.70;99.90;;;;;;5094370;28;20089;-74
2021/08/26 10:14:39;;;;;;;7.63;3.30;;;18.90;99.90;;;;;;5094123;28;20046;-77
2021/08/26 10:17:05;;;;;;;8.10;3.17;;;19.20;99.90;;;;;;5093494;28;20042;-77
2021/08/26 10:19:48;;;;;;;6.65;2.60;;;19.40;99.90;;;;;;5074899;27;1205913;-77
2021/08/26 10:22:14;;;;;;;5.65;2.50;;;19.70;99.90;;;;;;5092234;28;20020;-75
2021/08/26 10:24:40;;;;;;;8.82;2.88;;;19.80;99.90;;;;;;5087314;28;20429;-75
2021/08/26 10:27:10;;;;;;;4.55;2.50;;;19.80;99.90;;;;;;5101929;28;20537;-73
2021/08/26 10:29:41;;;;;;;5.35;2.40;;;20.00;99.90;;;;;;5090937;28;20034;-73
2021/08/26 10:32:13;;;;;;;7.43;3.13;;;20.20;99.90;;;;;;5091701;28;20058;-76
2021/08/26 10:34:38;;;;;;;7.03;2.58;;;20.40;99.90;;;;;;5110446;28;20095;-76
2021/08/26 10:37:20;;;;;;;6.07;2.72;;;20.40;99.90;;;;;;5091881;28;20024;-76
2021/08/26 10:39:47;;;;;;;6.38;2.75;;;20.30;99.90;;;;;;5091102;28;20024;-73
2021/08/26 10:42:28;;;;;;;6.47;2.45;;;20.40;99.90;;;;;;5092161;28;20027;-74
2021/08/26 10:45:05;;;;;;;5.22;2.42;;;20.40;99.90;;;;;;5090455;28;20060;-76
2021/08/26 10:48:07;;;;;;;8.45;2.60;;;20.50;99.90;;;;;;5091854;28;20110;-74
2021/08/26 10:50:37;;;;;;;10.32;3.60;;;20.60;99.90;;;;;;5091386;28;20134;-73
2021/08/26 10:53:08;;;;;;;8.57;3.20;;;20.60;99.90;;;;;;5090476;28;20051;-72
2021/08/26 10:55:39;;;;;;;8.00;2.88;;;20.70;99.90;;;;;;5088575;28;20054;-73
2021/08/26 10:58:23;;;;;;;6.60;2.58;;;20.70;99.90;;;;;;5090907;28;20039;-73
2021/08/26 11:01:03;;;;;;;7.75;3.50;;;20.70;99.90;;;;;;5091028;28;20050;-73
2021/08/26 11:03:35;;;;;;;8.13;2.97;;;20.80;99.90;;;;;;5078690;28;20031;-71
2021/08/26 11:06:19;;;;;;;7.55;3.25;;;20.90;99.90;;;;;;5070815;28;20028;-72
2021/08/26 11:08:47;;;;;;;10.32;3.47;;;21.00;99.90;;;;;;5080739;28;20085;-70
2021/08/26 11:11:27;;;;;;;14.18;3.67;;;21.20;99.90;;;;;;5109426;28;20012;-73
2021/08/26 11:14:02;;;;;;;9.90;3.30;;;21.20;99.90;;;;;;5109249;28;20016;-74
2021/08/26 11:16:28;;;;;;;7.55;3.47;;;21.10;99.90;;;;;;5109566;28;20028;-71
2021/08/26 11:18:59;;;;;;;11.20;3.67;;;21.10;99.90;;;;;;5090733;28;20131;-69
2021/08/26 11:24:10;;;;;;;12.73;4.25;;;21.10;99.90;;;;;;5095198;28;19957;-69
2021/08/26 11:27:00;;;;;;;11.38;4.03;;;21.20;99.90;;;;;;5078159;28;20028;-68
2021/08/26 11:29:29;;;;;;;8.95;3.50;;;21.00;99.90;;;;;;5066578;28;20024;-70
2021/08/26 11:31:54;;;;;;;9.98;3.40;;;20.90;99.90;;;;;;5072034;28;20040;-70
2021/08/26 11:34:26;;;;;;;9.25;3.80;;;20.80;99.90;;;;;;5094900;28;20031;-71
2021/08/26 11:37:05;;;;;;;16.98;4.03;;;20.80;99.90;;;;;;5094864;28;20028;-71
2021/08/26 11:39:35;;;;;;;9.38;3.60;;;20.90;99.90;;;;;;5084299;28;20032;-71
2021/08/26 11:42:21;;;;;;;10.20;3.63;;;21.00;99.90;;;;;;5094584;28;20032;-69
2021/08/26 11:45:07;;;;;;;9.65;4.22;;;21.20;99.90;;;;;;5077284;28;20376;-70
2021/08/26 11:47:34;;;;;;;8.35;4.05;;;21.30;99.90;;;;;;5095305;28;20587;-70
2021/08/26 11:50:22;;;;;;;11.70;3.70;;;21.40;99.90;;;;;;5075482;28;20032;-70
2021/08/26 11:52:53;;;;;;;9.98;4.00;;;21.50;99.90;;;;;;5095034;28;20123;-70
2021/08/26 11:55:24;;;;;;;10.65;4.25;;;21.70;99.90;;;;;;5094468;28;20016;-72
2021/08/26 11:57:57;;;;;;;8.70;4.30;;;21.80;99.90;;;;;;5094380;28;20088;-70
2021/08/26 12:00:23;;;;;;;9.60;4.45;;;21.70;99.90;;;;;;5094479;28;20024;-72
2021/08/26 12:02:57;;;;;;;9.38;4.20;;;21.70;99.90;;;;;;5094258;28;20020;-69
2021/08/26 12:05:24;;;;;;;10.57;3.90;;;21.60;99.90;;;;;;5076593;28;20032;-72
2021/08/26 12:07:52;;;;;;;9.93;3.92;;;21.70;99.90;;;;;;5094469;28;20043;-69
2021/08/26 12:10:30;;;;;;;8.05;3.47;;;22.00;99.90;;;;;;5094182;28;20095;-70
2021/08/26 12:13:05;;;;;;;10.98;4.75;;;22.10;99.90;;;;;;5076565;28;20024;-73
2021/08/26 12:15:39;;;;;;;10.10;4.30;;;22.10;99.90;;;;;;5077191;28;20103;-74
2021/08/26 12:18:11;;;;;;;11.80;4.47;;;22.10;99.90;;;;;;5074759;28;20035;-77
2021/08/26 12:20:46;;;;;;;8.27;3.72;;;22.00;99.90;;;;;;5075907;28;20625;-69
2021/08/26 12:23:24;;;;;;;10.48;3.90;;;22.00;99.90;;;;;;5090289;28;20020;-70
2021/08/26 12:26:15;;;;;;;9.85;3.90;;;21.80;99.90;;;;;;5093628;28;20087;-70
2021/08/26 12:28:44;;;;;;;9.25;4.45;;;21.50;99.90;;;;;;5075738;28;20016;-69
2021/08/26 12:31:12;;;;;;;14.43;4.40;;;21.20;99.90;;;;;;5067368;28;20025;-73
2021/08/26 12:33:38;;;;;;;11.80;4.20;;;20.90;99.90;;;;;;5056544;28;20093;-72
2021/08/26 12:36:04;;;;;;;11.82;4.65;;;20.60;99.90;;;;;;5087165;28;20024;-71
2021/08/26 12:38:41;;;;;;;9.02;4.60;;;20.40;99.90;;;;;;5075874;28;20048;-70
2021/08/26 12:41:12;;;;;;;13.93;4.55;;;20.30;99.90;;;;;;5093300;28;20093;-70
2021/08/26 12:43:47;;;;;;;11.35;4.43;;;20.30;99.90;;;;;;5094323;28;20504;-72
2021/08/26 12:46:16;;;;;;;10.05;4.32;;;20.60;99.90;;;;;;5075478;28;20107;-72
2021/08/26 12:48:43;;;;;;;11.40;3.95;;;21.00;99.90;;;;;;5093811;28;20024;-74
2021/08/26 12:51:13;;;;;;;10.57;3.97;;;21.30;99.90;;;;;;5093081;28;20024;-71
2021/08/26 12:53:42;;;;;;;8.32;3.85;;;21.20;99.90;;;;;;5075777;28;20384;-72
2021/08/26 12:56:15;;;;;;;15.32;4.57;;;21.10;99.90;;;;;;5093616;28;20043;-70